LGKF/EFL METAR and TAF weather

Enter ICAO airport designator
Station Type Date Time Source
LGKF METAR 2019/08/25 17:50 UTC NOAA

LGKF 251750Z 34012KT CAVOK 29/17 Q1012


Station Type Date Time Source
LGKF Decoded METAR 2019/08/25 17:50 UTC NOAA

Station name not available
Aug 25, 2019 - 01:50 PM EDT / 2019.08.25 1750 UTC
Wind: from the NNW (340 degrees) at 14 MPH (12 KT):0
Visibility: greater than 7 mile(s):0
Temperature: 84 F (29 C)
Dew Point: 62 F (17 C)
Relative Humidity: 48%
Pressure (altimeter): 29.88 in. Hg (1012 hPa)
ob: LGKF 251750Z 34012KT CAVOK 29/17 Q1012
cycle: 18

Station Type Date Time Source
LGKF TAF 2011/03/20 15:06 UTC NOAA

TAF LGKF 201400Z 2015/2103 05012KT 9999 FEW020 SCT080 PROB30
TEMPO 2015/2003 6000 RA SCT020 BKN060 PROB30
TEMPO 2015/2021 4000 TSRA SCT015 FEW018CB BKN025

Example: see airport list